createdAt,value
2023-01-20T00:01:07.560Z,96.44
2023-01-20T00:03:33.899Z,96.25
2023-01-20T00:06:00.279Z,96.31
2023-01-20T00:08:26.612Z,95.37
2023-01-20T00:10:53.264Z,95.37
2023-01-20T00:13:19.709Z,95.26
2023-01-20T00:15:46.093Z,95.68
2023-01-20T00:18:12.410Z,95.58
2023-01-20T00:20:38.803Z,95.17
2023-01-20T00:23:05.266Z,95.04
2023-01-20T00:25:32.007Z,94.91
2023-01-20T00:27:58.322Z,95.60
2023-01-20T00:30:25.227Z,95.20
2023-01-20T00:32:51.615Z,94.82
2023-01-20T00:35:18.002Z,96.05
2023-01-20T00:37:44.359Z,96.31
2023-01-20T00:40:11.243Z,95.90
2023-01-20T00:42:37.669Z,95.47
2023-01-20T00:45:04.455Z,96.17
2023-01-20T00:47:30.796Z,95.49
2023-01-20T00:49:57.115Z,95.51
2023-01-20T00:52:23.557Z,95.20
2023-01-20T00:54:51.481Z,95.90
2023-01-20T00:57:17.828Z,95.82
2023-01-20T00:59:44.137Z,96.58
2023-01-20T01:02:10.760Z,96.51
2023-01-20T01:04:37.150Z,96.67
2023-01-20T01:07:03.646Z,96.23
2023-01-20T01:09:30.383Z,95.92
2023-01-20T01:11:57.028Z,95.67
2023-01-20T01:14:23.578Z,96.45
2023-01-20T01:16:50.017Z,96.33
2023-01-20T01:19:18.664Z,96.49
2023-01-20T01:21:45.032Z,96.97
2023-01-20T01:24:11.363Z,97.32
2023-01-20T01:26:37.705Z,97.09
2023-01-20T01:29:04.011Z,97.41
2023-01-20T01:31:30.348Z,97.36
2023-01-20T01:33:56.775Z,97.38
2023-01-20T01:36:23.439Z,96.99
2023-01-20T01:38:59.031Z,96.82
2023-01-20T01:41:25.633Z,96.66
2023-01-20T01:44:11.673Z,96.27
2023-01-20T01:46:38.821Z,96.10
2023-01-20T01:49:19.815Z,95.96
2023-01-20T01:51:59.675Z,96.57
2023-01-20T01:54:31.302Z,96.79
2023-01-20T01:56:57.680Z,96.08
2023-01-20T01:59:24.093Z,95.91
2023-01-20T02:01:53.035Z,96.06
2023-01-20T02:04:22.563Z,96.59
2023-01-20T02:06:56.147Z,96.45
2023-01-20T02:09:24.467Z,96.98
2023-01-20T02:11:55.267Z,96.92
2023-01-20T02:14:30.897Z,96.98
2023-01-20T02:17:07.277Z,97.42
2023-01-20T02:19:59.777Z,97.59
2023-01-20T02:22:32.076Z,96.60
2023-01-20T02:25:05.177Z,97.03
2023-01-20T02:28:03.063Z,97.68
2023-01-20T02:30:57.389Z,97.75
2023-01-20T02:33:28.279Z,98.24
2023-01-20T02:36:08.588Z,98.16
2023-01-20T02:38:54.355Z,97.88
2023-01-20T02:41:26.573Z,97.61
2023-01-20T02:44:08.835Z,97.39
2023-01-20T02:46:48.003Z,97.36
2023-01-20T02:49:40.619Z,97.24
2023-01-20T02:52:13.296Z,97.80
2023-01-20T02:54:43.215Z,97.62
2023-01-20T02:57:14.558Z,97.78
2023-01-20T02:59:45.633Z,98.33
2023-01-20T03:02:22.608Z,97.35
2023-01-20T03:05:01.180Z,97.55
2023-01-20T03:07:31.316Z,97.97
2023-01-20T03:10:02.778Z,98.30
2023-01-20T03:12:54.756Z,98.00
2023-01-20T03:15:28.685Z,98.38
2023-01-20T03:17:55.059Z,98.52
2023-01-20T03:20:21.430Z,98.40
2023-01-20T03:22:47.843Z,98.25
2023-01-20T03:25:14.555Z,98.33
2023-01-20T03:27:41.460Z,98.76
2023-01-20T03:30:16.000Z,98.52
2023-01-20T03:32:46.081Z,98.54
2023-01-20T03:35:15.005Z,98.49
2023-01-20T03:37:42.794Z,98.31
2023-01-20T03:40:10.369Z,98.65
2023-01-20T03:43:00.807Z,98.26
2023-01-20T03:45:50.224Z,98.37
2023-01-20T03:48:24.390Z,98.57
2023-01-20T03:50:57.017Z,98.42
2023-01-20T03:53:42.188Z,98.61
2023-01-20T03:56:17.644Z,98.21
2023-01-20T03:58:48.292Z,98.51
2023-01-20T04:01:18.574Z,98.07
2023-01-20T04:03:48.422Z,98.46
2023-01-20T04:06:17.316Z,98.64
2023-01-20T04:08:50.931Z,98.58
2023-01-20T04:11:17.634Z,98.68
2023-01-20T04:13:43.976Z,98.35
2023-01-20T04:16:15.699Z,98.65
2023-01-20T04:18:45.619Z,98.66
2023-01-20T04:21:19.969Z,98.99
2023-01-20T04:23:55.670Z,98.54
2023-01-20T04:26:22.040Z,98.52
2023-01-20T04:28:48.377Z,98.90
2023-01-20T04:31:29.192Z,99.06
2023-01-20T04:33:56.702Z,98.05
2023-01-20T04:36:23.026Z,99.03
2023-01-20T04:38:49.338Z,98.62
2023-01-20T04:41:15.627Z,98.76
2023-01-20T04:43:47.037Z,98.62
2023-01-20T04:46:15.342Z,98.06
2023-01-20T04:48:43.774Z,98.09
2023-01-20T04:51:10.100Z,98.50
2023-01-20T04:53:36.609Z,98.59
2023-01-20T04:56:03.164Z,98.57
2023-01-20T04:58:29.520Z,98.32
2023-01-20T05:00:55.850Z,98.67
2023-01-20T05:03:22.178Z,98.84
2023-01-20T05:05:52.978Z,98.27
2023-01-20T05:08:19.339Z,98.74
2023-01-20T05:10:45.856Z,98.24
2023-01-20T05:13:14.811Z,98.60
2023-01-20T05:15:42.604Z,98.61
2023-01-20T05:18:09.011Z,98.62
2023-01-20T05:20:35.665Z,98.39
2023-01-20T05:23:02.019Z,98.35
2023-01-20T05:25:29.357Z,98.64
2023-01-20T05:27:55.770Z,98.80
2023-01-20T05:30:22.208Z,98.70
2023-01-20T05:32:51.417Z,98.28
2023-01-20T05:35:18.044Z,98.49
2023-01-20T05:37:45.000Z,98.48
2023-01-20T05:40:11.968Z,98.40
2023-01-20T05:42:38.580Z,98.17
2023-01-20T05:45:06.773Z,98.18
2023-01-20T05:47:33.168Z,97.91
2023-01-20T05:50:02.549Z,97.82
2023-01-20T05:52:36.234Z,98.09
2023-01-20T05:55:02.941Z,98.41
2023-01-20T05:57:29.658Z,98.19
2023-01-20T05:59:57.030Z,98.25
2023-01-20T06:02:23.865Z,98.01
2023-01-20T06:04:50.329Z,98.15
2023-01-20T06:07:16.989Z,97.64
2023-01-20T06:09:43.355Z,97.61
2023-01-20T06:12:09.916Z,97.62
2023-01-20T06:14:36.314Z,97.33
2023-01-20T06:17:02.685Z,97.58
2023-01-20T06:19:29.077Z,96.90
2023-01-20T06:21:57.727Z,97.80
2023-01-20T06:24:24.502Z,98.30
2023-01-20T06:26:51.184Z,98.11
2023-01-20T06:29:17.520Z,98.39
2023-01-20T06:31:45.487Z,98.36
2023-01-20T06:34:12.776Z,98.95
2023-01-20T06:36:39.557Z,99.12
2023-01-20T06:39:06.044Z,99.01
2023-01-20T06:41:32.520Z,99.21
2023-01-20T06:43:58.870Z,99.51
2023-01-20T06:46:25.232Z,100.00
2023-01-20T06:48:52.136Z,99.77
2023-01-20T06:51:20.189Z,100.00
2023-01-20T06:53:47.084Z,100.00
2023-01-20T06:56:15.158Z,100.00
2023-01-20T06:58:42.033Z,99.92
2023-01-20T07:01:24.210Z,100.00
2023-01-20T07:03:53.487Z,100.00
2023-01-20T07:06:29.120Z,100.00
2023-01-20T07:08:58.975Z,100.00
2023-01-20T07:11:25.694Z,100.00
2023-01-20T07:13:52.139Z,99.86
2023-01-20T07:16:18.796Z,100.00
2023-01-20T07:18:48.878Z,99.90
2023-01-20T07:21:15.714Z,99.61
2023-01-20T07:23:42.675Z,99.84
2023-01-20T07:26:11.377Z,99.68
2023-01-20T07:28:38.472Z,99.62
2023-01-20T07:31:06.421Z,99.62
2023-01-20T07:33:33.671Z,99.13
2023-01-20T07:36:00.182Z,99.89
2023-01-20T07:38:26.573Z,99.48
2023-01-20T07:40:52.930Z,99.44
2023-01-20T07:43:19.327Z,99.67
2023-01-20T07:45:45.652Z,99.51
2023-01-20T07:48:12.003Z,99.54
2023-01-20T07:50:38.374Z,99.87
2023-01-20T07:53:04.906Z,99.43
2023-01-20T07:55:31.299Z,100.00
2023-01-20T07:57:58.065Z,100.00
2023-01-20T08:00:24.726Z,100.00
2023-01-20T08:02:51.123Z,100.00
2023-01-20T08:05:17.477Z,99.66
2023-01-20T08:07:44.862Z,99.64
2023-01-20T08:10:11.355Z,99.74
2023-01-20T08:12:37.681Z,99.39
2023-01-20T08:15:04.516Z,99.10
2023-01-20T08:17:30.808Z,99.81
2023-01-20T08:19:57.154Z,98.98
2023-01-20T08:22:23.504Z,99.30
2023-01-20T08:24:49.806Z,99.46
2023-01-20T08:27:16.318Z,99.18
2023-01-20T08:29:42.735Z,99.02
2023-01-20T08:32:09.020Z,99.25
2023-01-20T08:34:35.394Z,98.79
2023-01-20T08:37:01.707Z,99.48
2023-01-20T08:39:28.301Z,99.19
2023-01-20T08:41:54.662Z,99.16
2023-01-20T08:44:21.028Z,99.06
2023-01-20T08:46:47.800Z,99.10
2023-01-20T08:49:18.457Z,99.36
2023-01-20T08:51:45.275Z,99.11
2023-01-20T08:54:12.034Z,98.99
2023-01-20T08:56:38.401Z,99.51
2023-01-20T08:59:04.827Z,98.92
2023-01-20T09:01:33.407Z,99.47
2023-01-20T09:04:06.737Z,98.46
2023-01-20T09:06:47.946Z,98.98
2023-01-20T09:09:16.602Z,99.02
2023-01-20T09:11:43.188Z,98.87
2023-01-20T09:14:09.619Z,99.19
2023-01-20T09:16:36.211Z,99.71
2023-01-20T09:19:02.631Z,99.03
2023-01-20T09:21:29.019Z,99.21
2023-01-20T09:23:55.546Z,99.13
2023-01-20T09:26:34.602Z,99.19
2023-01-20T09:29:01.930Z,99.39
2023-01-20T09:31:28.297Z,99.36
2023-01-20T09:33:54.719Z,99.70
2023-01-20T09:36:21.053Z,99.36
2023-01-20T09:38:47.469Z,99.44
2023-01-20T09:41:30.560Z,99.53
2023-01-20T09:44:19.539Z,99.57
2023-01-20T09:47:13.970Z,99.46
2023-01-20T09:49:56.011Z,99.45
2023-01-20T09:52:33.247Z,99.90
2023-01-20T09:55:05.264Z,99.82
2023-01-20T09:57:36.756Z,99.58
2023-01-20T10:00:11.687Z,99.82
2023-01-20T10:02:41.336Z,99.86
2023-01-20T10:05:12.788Z,99.48
2023-01-20T10:08:29.906Z,99.91
2023-01-20T10:11:05.703Z,99.91
2023-01-20T10:13:45.448Z,99.75
2023-01-20T10:16:18.585Z,99.72
2023-01-20T10:19:20.975Z,99.90
2023-01-20T10:22:06.319Z,99.64
2023-01-20T10:24:39.633Z,100.00
2023-01-20T10:27:06.139Z,100.00
2023-01-20T10:29:36.803Z,100.00
2023-01-20T10:32:12.896Z,100.00
2023-01-20T10:34:47.478Z,100.00
2023-01-20T10:37:14.167Z,100.00
2023-01-20T10:39:43.420Z,100.00
2023-01-20T10:42:17.848Z,100.00
2023-01-20T10:44:48.943Z,100.00
2023-01-20T10:47:24.798Z,100.00
2023-01-20T10:50:04.760Z,99.79
2023-01-20T10:53:00.212Z,100.00
2023-01-20T10:56:03.898Z,100.00
2023-01-20T10:58:36.744Z,100.00
2023-01-20T11:01:06.689Z,100.00
2023-01-20T11:03:37.074Z,100.00
2023-01-20T11:06:04.426Z,100.00
2023-01-20T11:08:31.168Z,100.00
2023-01-20T11:11:08.485Z,99.95
2023-01-20T11:13:35.049Z,100.00
2023-01-20T11:16:26.324Z,99.99
2023-01-20T11:19:06.326Z,100.00
2023-01-20T11:21:35.697Z,100.00
2023-01-20T11:24:25.858Z,100.00
2023-01-20T11:26:53.194Z,99.72
2023-01-20T11:29:19.602Z,100.00
2023-01-20T11:31:54.480Z,99.85
2023-01-20T11:34:27.896Z,99.98
2023-01-20T11:37:06.591Z,99.84
2023-01-20T11:39:36.852Z,99.85
2023-01-20T11:42:23.645Z,99.49
2023-01-20T11:45:15.295Z,99.04
2023-01-20T11:47:41.930Z,98.76
2023-01-20T11:50:11.135Z,98.62
2023-01-20T11:52:40.398Z,98.49
2023-01-20T11:55:14.777Z,97.95
2023-01-20T11:58:02.739Z,97.99
2023-01-20T12:00:38.401Z,97.44
2023-01-20T12:03:19.098Z,97.47
2023-01-20T12:06:23.267Z,98.03
2023-01-20T12:08:50.969Z,97.44
2023-01-20T12:11:30.697Z,97.54
2023-01-20T12:14:21.703Z,98.11
2023-01-20T12:16:59.701Z,98.06
2023-01-20T12:19:42.132Z,97.83
2023-01-20T12:22:17.955Z,97.58
2023-01-20T12:24:57.921Z,98.02
2023-01-20T12:27:28.256Z,97.96
2023-01-20T12:30:04.018Z,98.33
2023-01-20T12:32:30.706Z,98.42
2023-01-20T12:34:57.465Z,98.08
2023-01-20T12:37:42.513Z,98.22
2023-01-20T12:40:09.481Z,98.17
2023-01-20T12:42:56.852Z,98.02
2023-01-20T12:45:54.376Z,97.87
2023-01-20T12:48:25.564Z,98.09
2023-01-20T12:51:24.436Z,98.35
2023-01-20T12:53:57.504Z,97.82
2023-01-20T12:56:45.789Z,98.29
2023-01-20T12:59:49.737Z,98.62
2023-01-20T13:02:16.669Z,98.37
2023-01-20T13:05:08.673Z,98.64
2023-01-20T13:08:02.590Z,98.47
2023-01-20T13:10:51.620Z,98.43
2023-01-20T13:13:56.854Z,98.91
2023-01-20T13:16:23.791Z,98.58
2023-01-20T13:18:58.958Z,98.41
2023-01-20T13:21:27.740Z,98.98
2023-01-20T13:23:54.132Z,99.45
2023-01-20T13:26:22.060Z,99.05
2023-01-20T13:28:56.678Z,99.03
2023-01-20T13:31:38.578Z,98.75
2023-01-20T13:34:23.245Z,98.84
2023-01-20T13:37:04.839Z,98.94
2023-01-20T13:39:31.122Z,98.47
2023-01-20T13:41:57.453Z,98.71
2023-01-20T13:44:38.018Z,98.14
2023-01-20T13:47:08.564Z,98.11
2023-01-20T13:49:44.022Z,98.15
2023-01-20T13:52:12.325Z,98.74
2023-01-20T13:54:46.319Z,97.71
2023-01-20T13:57:21.803Z,97.50
2023-01-20T13:59:48.264Z,97.58
2023-01-20T14:02:35.718Z,97.89
2023-01-20T14:05:02.181Z,97.46
2023-01-20T14:07:30.266Z,97.06
2023-01-20T14:10:01.400Z,96.80
2023-01-20T14:12:27.954Z,97.13
2023-01-20T14:14:56.927Z,96.43
2023-01-20T14:17:24.693Z,96.38
2023-01-20T14:19:54.614Z,96.37
2023-01-20T14:22:29.520Z,96.73
2023-01-20T14:24:57.596Z,96.43
2023-01-20T14:27:29.382Z,96.42
2023-01-20T14:29:57.536Z,96.57
2023-01-20T14:32:25.380Z,96.68
2023-01-20T14:34:56.000Z,96.24
2023-01-20T14:37:30.225Z,96.25
2023-01-20T14:39:59.747Z,96.68
2023-01-20T14:42:27.991Z,96.60
2023-01-20T14:44:56.326Z,96.65
2023-01-20T14:47:25.397Z,95.86
2023-01-20T14:49:53.613Z,95.99
2023-01-20T14:52:25.113Z,95.42
2023-01-20T14:54:52.572Z,95.71
2023-01-20T14:57:32.754Z,95.50
2023-01-20T15:00:13.004Z,95.74
2023-01-20T15:02:42.374Z,94.95
2023-01-20T15:05:42.298Z,95.77
2023-01-20T15:08:11.393Z,95.91
2023-01-20T15:10:41.674Z,95.66
2023-01-20T15:13:25.712Z,95.31
2023-01-20T15:15:52.331Z,95.78
2023-01-20T15:18:22.357Z,95.41
2023-01-20T15:21:15.721Z,95.84
2023-01-20T15:23:43.223Z,95.66
2023-01-20T15:26:30.170Z,95.49
2023-01-20T15:28:58.092Z,95.63
2023-01-20T15:31:25.943Z,95.60
2023-01-20T15:33:52.475Z,95.43
2023-01-20T15:36:37.983Z,94.14
2023-01-20T15:39:12.700Z,94.04
2023-01-20T15:41:41.305Z,92.90
2023-01-20T15:44:08.469Z,93.32
2023-01-20T15:46:35.806Z,93.22
2023-01-20T15:49:02.164Z,93.68
2023-01-20T15:51:28.493Z,93.85
2023-01-20T15:53:54.880Z,93.99
2023-01-20T15:56:28.251Z,93.48
2023-01-20T15:58:54.981Z,93.34
2023-01-20T16:01:23.477Z,93.95
2023-01-20T16:03:49.963Z,93.66
2023-01-20T16:06:17.976Z,93.97
2023-01-20T16:08:47.018Z,94.38
2023-01-20T16:11:17.624Z,94.44
2023-01-20T16:13:45.120Z,94.72
2023-01-20T16:16:20.838Z,94.54
2023-01-20T16:18:48.211Z,95.21
2023-01-20T16:21:17.597Z,95.04
2023-01-20T16:23:44.444Z,95.17
2023-01-20T16:26:26.020Z,95.42
2023-01-20T16:28:55.280Z,95.21
2023-01-20T16:31:23.137Z,95.59
2023-01-20T16:33:50.056Z,95.34
2023-01-20T16:36:19.726Z,95.91
2023-01-20T16:38:47.365Z,94.79
2023-01-20T16:41:15.315Z,94.66
2023-01-20T16:43:42.551Z,94.93
2023-01-20T16:46:19.215Z,95.37
2023-01-20T16:48:45.746Z,94.75
2023-01-20T16:51:18.080Z,94.96
2023-01-20T16:53:44.662Z,94.66
2023-01-20T16:56:19.854Z,94.43
2023-01-20T16:58:50.885Z,94.31
2023-01-20T17:01:18.708Z,94.57
2023-01-20T17:03:45.076Z,94.39
2023-01-20T17:06:15.003Z,94.62
2023-01-20T17:08:46.706Z,93.91
2023-01-20T17:11:19.103Z,93.66
2023-01-20T17:13:45.640Z,93.78
2023-01-20T17:16:12.470Z,94.42
2023-01-20T17:18:39.176Z,94.07
2023-01-20T17:21:08.344Z,94.14
2023-01-20T17:23:38.329Z,94.45
2023-01-20T17:26:06.193Z,94.65
2023-01-20T17:28:33.271Z,95.07
2023-01-20T17:31:04.647Z,95.01
2023-01-20T17:33:31.303Z,95.62
2023-01-20T17:36:17.216Z,95.09
2023-01-20T17:38:44.276Z,95.57
2023-01-20T17:41:12.616Z,96.03
2023-01-20T17:43:44.573Z,95.75
2023-01-20T17:46:17.759Z,96.07
2023-01-20T17:48:45.085Z,96.13
2023-01-20T17:51:20.595Z,96.39
2023-01-20T17:53:48.122Z,96.75
2023-01-20T17:56:15.862Z,97.17
2023-01-20T17:58:44.560Z,96.68
2023-01-20T18:01:21.260Z,97.34
2023-01-20T18:03:50.068Z,96.97
2023-01-20T18:06:17.924Z,97.44
2023-01-20T18:08:49.472Z,97.33
2023-01-20T18:11:19.789Z,97.21
2023-01-20T18:13:47.043Z,97.27
2023-01-20T18:16:15.495Z,97.52
2023-01-20T18:18:43.527Z,97.69
2023-01-20T18:21:09.942Z,97.42
2023-01-20T18:23:39.067Z,97.85
2023-01-20T18:26:08.223Z,97.19
2023-01-20T18:28:35.570Z,97.21
2023-01-20T18:31:09.328Z,97.33
2023-01-20T18:33:46.621Z,97.06
2023-01-20T18:36:16.594Z,97.33
2023-01-20T18:38:43.250Z,96.96
2023-01-20T18:41:13.992Z,97.44
2023-01-20T18:43:40.995Z,96.85
2023-01-20T18:46:08.481Z,97.06
2023-01-20T18:48:39.431Z,96.87
2023-01-20T18:51:07.048Z,97.21
2023-01-20T18:53:33.603Z,97.17
2023-01-20T18:56:01.359Z,97.01
2023-01-20T18:58:28.149Z,97.30
2023-01-20T19:01:12.670Z,97.21
2023-01-20T19:03:39.358Z,96.92
2023-01-20T19:06:10.958Z,97.21
2023-01-20T19:08:42.050Z,97.31
2023-01-20T19:11:23.840Z,97.17
2023-01-20T19:13:51.973Z,97.56
2023-01-20T19:16:20.690Z,97.39
2023-01-20T19:18:59.338Z,97.18
2023-01-20T19:21:26.596Z,97.29
2023-01-20T19:23:57.018Z,97.08
2023-01-20T19:26:25.814Z,97.50
2023-01-20T19:29:00.948Z,97.33
2023-01-20T19:31:29.029Z,97.49
2023-01-20T19:33:55.468Z,97.46
2023-01-20T19:36:21.828Z,96.96
2023-01-20T19:38:48.404Z,97.09
2023-01-20T19:41:20.470Z,97.64
2023-01-20T19:43:47.294Z,97.39
2023-01-20T19:46:16.785Z,97.68
2023-01-20T19:48:43.236Z,97.46
2023-01-20T19:51:15.198Z,97.58
2023-01-20T19:53:43.055Z,97.35
2023-01-20T19:56:12.727Z,97.24
2023-01-20T19:58:40.165Z,97.12
2023-01-20T20:01:08.375Z,96.98
2023-01-20T20:03:35.510Z,97.11
2023-01-20T20:06:02.272Z,97.32
2023-01-20T20:08:28.658Z,97.35
2023-01-20T20:10:55.613Z,97.18
2023-01-20T20:13:22.864Z,96.80
2023-01-20T20:15:49.410Z,96.73
2023-01-20T20:18:15.985Z,96.87
2023-01-20T20:20:44.199Z,96.86
2023-01-20T20:23:10.678Z,96.47
2023-01-20T20:25:37.400Z,96.75
2023-01-20T20:28:04.276Z,96.46
2023-01-20T20:30:30.668Z,96.25
2023-01-20T20:32:57.009Z,96.58
2023-01-20T20:35:24.302Z,96.76
2023-01-20T20:37:50.632Z,96.72
2023-01-20T20:40:17.563Z,96.36
2023-01-20T20:42:44.128Z,96.54
2023-01-20T20:45:10.695Z,96.43
2023-01-20T20:47:39.499Z,95.97
2023-01-20T20:50:06.457Z,96.28
2023-01-20T20:52:32.878Z,96.15
2023-01-20T20:54:59.433Z,96.53
2023-01-20T20:57:25.996Z,96.37
2023-01-20T20:59:58.814Z,96.73
2023-01-20T21:02:26.465Z,96.28
2023-01-20T21:04:53.150Z,96.75
2023-01-20T21:07:19.685Z,96.52
2023-01-20T21:09:46.101Z,96.46
2023-01-20T21:12:12.482Z,96.29
2023-01-20T21:14:38.833Z,96.42
2023-01-20T21:17:05.436Z,96.40
2023-01-20T21:19:31.750Z,96.02
2023-01-20T21:21:58.041Z,95.99
2023-01-20T21:24:24.463Z,95.84
2023-01-20T21:26:53.513Z,95.84
2023-01-20T21:29:19.968Z,95.94
2023-01-20T21:31:46.480Z,95.59
2023-01-20T21:34:14.821Z,95.66
2023-01-20T21:36:41.824Z,95.95
2023-01-20T21:39:12.745Z,95.71
2023-01-20T21:41:39.191Z,95.69
2023-01-20T21:44:10.216Z,95.82
2023-01-20T21:46:39.310Z,95.50
2023-01-20T21:49:06.338Z,95.62
2023-01-20T21:51:32.952Z,95.66
2023-01-20T21:53:59.309Z,96.01
2023-01-20T21:56:25.628Z,95.86
2023-01-20T21:58:51.912Z,95.83
2023-01-20T22:01:18.270Z,95.75
2023-01-20T22:03:44.593Z,95.56
2023-01-20T22:06:10.888Z,94.98
2023-01-20T22:08:37.191Z,95.26
2023-01-20T22:11:03.597Z,94.94
2023-01-20T22:13:29.889Z,95.04
2023-01-20T22:15:56.228Z,95.26
2023-01-20T22:18:22.637Z,95.08
2023-01-20T22:20:49.002Z,94.94
2023-01-20T22:23:15.357Z,95.46
2023-01-20T22:25:41.657Z,96.13
2023-01-20T22:28:08.016Z,95.36
2023-01-20T22:30:34.367Z,95.62
2023-01-20T22:33:00.700Z,95.54
2023-01-20T22:35:26.981Z,95.75
2023-01-20T22:37:53.272Z,95.39
2023-01-20T22:40:19.729Z,94.83
2023-01-20T22:42:46.191Z,95.11
2023-01-20T22:45:12.542Z,94.42
2023-01-20T22:47:38.825Z,94.92
2023-01-20T22:50:05.572Z,95.12
2023-01-20T22:52:32.910Z,95.05
2023-01-20T22:54:59.262Z,95.17
2023-01-20T22:57:25.589Z,95.23
2023-01-20T22:59:51.929Z,95.13
2023-01-20T23:02:18.289Z,94.70
2023-01-20T23:04:44.643Z,94.54
2023-01-20T23:07:11.097Z,94.75
2023-01-20T23:09:37.417Z,94.94
2023-01-20T23:12:04.071Z,95.10
2023-01-20T23:14:30.566Z,95.30
2023-01-20T23:16:56.910Z,95.17
2023-01-20T23:19:23.232Z,94.97
2023-01-20T23:21:49.686Z,95.35
2023-01-20T23:24:16.034Z,95.51
2023-01-20T23:26:42.423Z,95.18
2023-01-20T23:29:08.798Z,95.69
2023-01-20T23:31:35.169Z,95.46
2023-01-20T23:34:01.615Z,95.94
2023-01-20T23:36:27.928Z,95.80
2023-01-20T23:38:55.435Z,96.13
2023-01-20T23:41:22.284Z,95.86
2023-01-20T23:43:48.843Z,96.04
2023-01-20T23:46:15.260Z,95.90
2023-01-20T23:48:41.619Z,96.11
2023-01-20T23:51:08.000Z,96.37
2023-01-20T23:53:37.859Z,95.84
2023-01-20T23:56:16.873Z,96.43
2023-01-20T23:58:43.748Z,96.54
